IGO128 VABB-VOGO
Flight info
| Callsign | IGO128 |
|---|---|
| Flight time | N/A |
| Altitude | 35000 |
| Route | VEVAK2A MABTA W15 UDULO UDULO2E |
| Aircraft | A20N/M-SDE2E3FGHIRWXY/LB1 |
Departure
| Time | 2026-04-30 22:13 |
|---|---|
| Airport | Chhatrapati Shivaji Maharaj International Airport (VABB) |
Arrival
| Time | N/A |
|---|---|
| Airport | Goa Dabolim International Airport (VOGO) |
| Time | Latitude | Longitude | Altitude | Speed | Heading |
|---|---|---|---|---|---|
| 2026-04-30 21:56 | 19.09323 | 72.87081 | 34 ft | 0 kts | 32° |
| 2026-04-30 22:03 | 19.09319 | 72.87078 | 33 ft | 1 kts | 32° |
| 2026-04-30 22:03 | 19.09315 | 72.87075 | 33 ft | 2 kts | 32° |
| 2026-04-30 22:04 | 19.09299 | 72.87064 | 33 ft | 3 kts | 32° |
| 2026-04-30 22:04 | 19.09283 | 72.87053 | 34 ft | 3 kts | 32° |
| 2026-04-30 22:04 | 19.09257 | 72.87025 | 31 ft | 3 kts | 72° |
| 2026-04-30 22:05 | 19.09253 | 72.87005 | 34 ft | 3 kts | 97° |
| 2026-04-30 22:05 | 19.09255 | 72.86993 | 34 ft | 1 kts | 115° |
| 2026-04-30 22:05 | 19.09257 | 72.86988 | 32 ft | 0 kts | 129° |
| 2026-04-30 22:07 | 19.09254 | 72.86992 | 34 ft | 3 kts | 129° |
| 2026-04-30 22:08 | 19.09238 | 72.87026 | 32 ft | 8 kts | 106° |
| 2026-04-30 22:08 | 19.09214 | 72.87093 | 33 ft | 11 kts | 124° |
| 2026-04-30 22:08 | 19.09159 | 72.87169 | 33 ft | 15 kts | 120° |
| 2026-04-30 22:08 | 19.09097 | 72.87261 | 33 ft | 16 kts | 169° |
| 2026-04-30 22:09 | 19.09051 | 72.87347 | 33 ft | 16 kts | 91° |
| 2026-04-30 22:09 | 19.09054 | 72.87476 | 33 ft | 19 kts | 90° |
| 2026-04-30 22:09 | 19.09055 | 72.87630 | 33 ft | 23 kts | 88° |
| 2026-04-30 22:09 | 19.09056 | 72.87760 | 33 ft | 2 kts | 94° |
| 2026-04-30 22:10 | 19.09037 | 72.87798 | 32 ft | 9 kts | 144° |
| 2026-04-30 22:10 | 19.09013 | 72.87807 | 32 ft | 0 kts | 173° |
| 2026-04-30 22:11 | 19.09009 | 72.87807 | 32 ft | 0 kts | 174° |
| 2026-04-30 22:11 | 19.08992 | 72.87807 | 32 ft | 5 kts | 179° |
| 2026-04-30 22:11 | 19.08930 | 72.87802 | 32 ft | 13 kts | 199° |
| 2026-04-30 22:12 | 19.08889 | 72.87712 | 32 ft | 15 kts | 264° |
| 2026-04-30 22:12 | 19.08885 | 72.87541 | 32 ft | 53 kts | 269° |
| 2026-04-30 22:12 | 19.08869 | 72.86807 | 35 ft | 141 kts | 268° |
| 2026-04-30 22:12 | 19.08879 | 72.85547 | 234 ft | 192 kts | 269° |
| 2026-04-30 22:13 | 19.08894 | 72.84090 | 879 ft | 206 kts | 270° |
| 2026-04-30 22:13 | 19.08950 | 72.82507 | 1462 ft | 229 kts | 272° |
| 2026-04-30 22:13 | 19.08966 | 72.80734 | 2240 ft | 249 kts | 267° |
| 2026-04-30 22:13 | 19.08881 | 72.78897 | 3178 ft | 255 kts | 266° |
| 2026-04-30 22:14 | 19.08788 | 72.77021 | 4327 ft | 255 kts | 268° |
| 2026-04-30 22:14 | 19.08714 | 72.75134 | 5363 ft | 258 kts | 270° |
| 2026-04-30 22:14 | 19.08461 | 72.73244 | 6301 ft | 267 kts | 252° |
| 2026-04-30 22:14 | 19.07418 | 72.71594 | 7188 ft | 279 kts | 226° |
| 2026-04-30 22:15 | 19.05699 | 72.70546 | 8044 ft | 294 kts | 200° |
| 2026-04-30 22:15 | 19.03646 | 72.70323 | 8555 ft | 303 kts | 176° |
| 2026-04-30 22:15 | 19.01626 | 72.71010 | 8750 ft | 310 kts | 151° |
| 2026-04-30 22:15 | 18.99871 | 72.72351 | 8824 ft | 312 kts | 144° |
| 2026-04-30 22:16 | 18.98688 | 72.73197 | 8837 ft | 310 kts | 152° |
| 2026-04-30 22:16 | 18.96022 | 72.74295 | 8836 ft | 306 kts | 169° |
| 2026-04-30 22:17 | 18.89736 | 72.74671 | 8838 ft | 303 kts | 184° |
| 2026-04-30 22:17 | 18.87621 | 72.74602 | 8837 ft | 302 kts | 185° |
| 2026-04-30 22:17 | 18.84124 | 72.74480 | 8839 ft | 302 kts | 185° |
| 2026-04-30 22:18 | 18.81311 | 72.74394 | 8835 ft | 302 kts | 184° |
| 2026-04-30 22:18 | 18.77812 | 72.74449 | 8840 ft | 305 kts | 174° |
| 2026-04-30 22:19 | 18.73661 | 72.75713 | 9611 ft | 311 kts | 163° |
| 2026-04-30 22:19 | 18.71612 | 72.76429 | 9914 ft | 312 kts | 163° |
| 2026-04-30 22:19 | 18.67177 | 72.77955 | 10504 ft | 356 kts | 163° |
| 2026-04-30 22:20 | 18.64797 | 72.78778 | 11213 ft | 362 kts | 163° |
| 2026-04-30 22:20 | 18.59965 | 72.80456 | 12866 ft | 370 kts | 163° |
| 2026-04-30 22:20 | 18.57507 | 72.81309 | 13663 ft | 374 kts | 163° |
| 2026-04-30 22:21 | 18.55021 | 72.82171 | 14350 ft | 379 kts | 162° |
| 2026-04-30 22:21 | 18.52501 | 72.83044 | 15024 ft | 384 kts | 162° |
| 2026-04-30 22:21 | 18.49982 | 72.83917 | 15695 ft | 388 kts | 162° |
| 2026-04-30 22:21 | 18.47403 | 72.84811 | 16374 ft | 393 kts | 162° |
| 2026-04-30 22:22 | 18.44788 | 72.85716 | 17038 ft | 398 kts | 162° |
| 2026-04-30 22:22 | 18.42105 | 72.86645 | 17689 ft | 403 kts | 162° |
| 2026-04-30 22:22 | 18.39458 | 72.87562 | 18301 ft | 408 kts | 162° |
| 2026-04-30 22:22 | 18.36750 | 72.88499 | 18905 ft | 411 kts | 161° |
| 2026-04-30 22:23 | 18.34022 | 72.89443 | 19506 ft | 415 kts | 161° |
| 2026-04-30 22:23 | 18.31260 | 72.90399 | 20108 ft | 419 kts | 161° |
| 2026-04-30 22:23 | 18.28476 | 72.91362 | 20704 ft | 423 kts | 161° |
| 2026-04-30 22:23 | 18.25665 | 72.92334 | 21301 ft | 427 kts | 161° |
| 2026-04-30 22:24 | 18.22820 | 72.93318 | 21892 ft | 431 kts | 161° |
| 2026-04-30 22:24 | 18.19956 | 72.94308 | 22486 ft | 436 kts | 161° |
| 2026-04-30 22:24 | 18.17101 | 72.95294 | 23075 ft | 440 kts | 161° |
| 2026-04-30 22:24 | 18.14162 | 72.96309 | 23617 ft | 444 kts | 161° |
| 2026-04-30 22:25 | 18.11219 | 72.97326 | 24144 ft | 446 kts | 161° |
| 2026-04-30 22:25 | 18.08259 | 72.98347 | 24662 ft | 449 kts | 161° |
| 2026-04-30 22:25 | 18.05392 | 72.99425 | 25135 ft | 452 kts | 159° |
| 2026-04-30 22:25 | 18.02460 | 73.00628 | 25590 ft | 455 kts | 158° |
| 2026-04-30 22:26 | 17.96539 | 73.03090 | 26504 ft | 460 kts | 159° |
| 2026-04-30 22:26 | 17.93549 | 73.04314 | 26926 ft | 463 kts | 159° |
| 2026-04-30 22:26 | 17.90533 | 73.05539 | 27333 ft | 466 kts | 159° |
| 2026-04-30 22:27 | 17.87505 | 73.06763 | 27735 ft | 468 kts | 159° |
| 2026-04-30 22:27 | 17.84442 | 73.08001 | 28149 ft | 470 kts | 159° |
| 2026-04-30 22:27 | 17.78332 | 73.10466 | 28852 ft | 476 kts | 159° |
| 2026-04-30 22:28 | 17.72118 | 73.12972 | 29556 ft | 481 kts | 159° |
| 2026-04-30 22:28 | 17.68988 | 73.14234 | 29879 ft | 484 kts | 159° |
| 2026-04-30 22:29 | 17.59502 | 73.18054 | 30784 ft | 490 kts | 159° |
| 2026-04-30 22:29 | 17.56318 | 73.19335 | 31107 ft | 491 kts | 159° |
| 2026-04-30 22:30 | 17.43586 | 73.24452 | 32704 ft | 488 kts | 159° |
| 2026-04-30 22:31 | 17.34130 | 73.28248 | 33868 ft | 486 kts | 159° |
| 2026-04-30 22:32 | 17.24700 | 73.32030 | 34787 ft | 482 kts | 159° |
| 2026-04-30 22:32 | 17.18453 | 73.34533 | 34873 ft | 480 kts | 159° |
| 2026-04-30 22:33 | 17.02410 | 73.39291 | 34881 ft | 479 kts | 166° |
| 2026-04-30 22:35 | 16.86202 | 73.43474 | 34885 ft | 480 kts | 166° |
| 2026-04-30 22:36 | 16.70006 | 73.47644 | 34892 ft | 480 kts | 166° |
| 2026-04-30 22:37 | 16.57066 | 73.50971 | 34893 ft | 479 kts | 166° |
| 2026-04-30 22:37 | 16.50593 | 73.52633 | 34392 ft | 479 kts | 166° |
| 2026-04-30 22:38 | 16.44089 | 73.54304 | 32141 ft | 487 kts | 166° |
| 2026-04-30 22:38 | 16.37639 | 73.55959 | 31041 ft | 459 kts | 167° |
| 2026-04-30 22:39 | 16.34580 | 73.56615 | 30845 ft | 438 kts | 170° |
| 2026-04-30 22:39 | 16.26133 | 73.58268 | 30260 ft | 393 kts | 170° |
| 2026-04-30 22:40 | 16.18150 | 73.59831 | 28729 ft | 397 kts | 170° |
| 2026-04-30 22:41 | 16.09068 | 73.61604 | 26546 ft | 467 kts | 169° |
| 2026-04-30 22:41 | 16.02708 | 73.62851 | 24997 ft | 459 kts | 169° |
| 2026-04-30 22:42 | 15.90654 | 73.65207 | 21785 ft | 426 kts | 169° |
| 2026-04-30 22:43 | 15.84915 | 73.66324 | 20136 ft | 413 kts | 169° |
| 2026-04-30 22:43 | 15.79321 | 73.67310 | 18567 ft | 401 kts | 170° |
| 2026-04-30 22:44 | 15.73885 | 73.68247 | 16920 ft | 390 kts | 169° |
| 2026-04-30 22:45 | 15.63251 | 73.70111 | 13727 ft | 384 kts | 170° |
| 2026-04-30 22:45 | 15.58004 | 73.71031 | 12207 ft | 376 kts | 170° |
| 2026-04-30 22:46 | 15.53052 | 73.71899 | 11693 ft | 356 kts | 170° |
| 2026-04-30 22:47 | 15.43844 | 73.73621 | 11214 ft | 304 kts | 166° |
| 2026-04-30 22:47 | 15.39988 | 73.74555 | 10928 ft | 268 kts | 166° |
| 2026-04-30 22:48 | 15.36602 | 73.75370 | 10649 ft | 233 kts | 166° |
| 2026-04-30 22:49 | 15.32124 | 73.76451 | 10091 ft | 219 kts | 166° |
| 2026-04-30 22:49 | 15.28802 | 73.79157 | 9869 ft | 212 kts | 100° |
| 2026-04-30 22:50 | 15.29721 | 73.85084 | 9483 ft | 208 kts | 77° |
| 2026-04-30 22:51 | 15.30312 | 73.88030 | 8855 ft | 209 kts | 77° |
| 2026-04-30 22:51 | 15.30902 | 73.90971 | 8266 ft | 208 kts | 77° |
| 2026-04-30 22:52 | 15.31196 | 73.92429 | 7991 ft | 208 kts | 77° |
| 2026-04-30 22:52 | 15.31787 | 73.95359 | 7423 ft | 207 kts | 77° |
| 2026-04-30 22:53 | 15.32378 | 73.98287 | 6862 ft | 208 kts | 77° |
| 2026-04-30 22:53 | 15.32963 | 74.01188 | 6372 ft | 207 kts | 77° |
| 2026-04-30 22:53 | 15.33258 | 74.02652 | 6100 ft | 207 kts | 77° |
| 2026-04-30 22:54 | 15.33971 | 74.05532 | 5538 ft | 207 kts | 57° |
| 2026-04-30 22:55 | 15.37401 | 74.06249 | 5236 ft | 162 kts | 345° |
| 2026-04-30 22:55 | 15.39535 | 74.05786 | 4869 ft | 156 kts | 346° |
| 2026-04-30 22:56 | 15.41495 | 74.04938 | 4278 ft | 157 kts | 303° |
| 2026-04-30 22:56 | 15.41700 | 74.01670 | 3471 ft | 149 kts | 257° |
| 2026-04-30 22:57 | 15.41311 | 73.99671 | 3068 ft | 135 kts | 258° |
| 2026-04-30 22:57 | 15.40950 | 73.97835 | 2705 ft | 128 kts | 258° |
| 2026-04-30 22:58 | 15.40592 | 73.96010 | 2363 ft | 129 kts | 258° |
| 2026-04-30 22:59 | 15.40059 | 73.93297 | 1848 ft | 129 kts | 259° |
| 2026-04-30 22:59 | 15.39526 | 73.90582 | 1336 ft | 128 kts | 260° |